createdAt,value
2022-09-20T00:00:57.746Z,74.76
2022-09-20T00:01:58.084Z,74.15
2022-09-20T00:02:57.677Z,74.15
2022-09-20T00:03:58.028Z,74.65
2022-09-20T00:04:57.712Z,75.46
2022-09-20T00:05:57.626Z,75.16
2022-09-20T00:06:57.752Z,74.45
2022-09-20T00:07:57.650Z,73.84
2022-09-20T00:08:57.524Z,73.94
2022-09-20T00:09:57.883Z,74.18
2022-09-20T00:10:57.555Z,74.99
2022-09-20T00:11:57.574Z,75.81
2022-09-20T00:12:57.754Z,75.91
2022-09-20T00:13:57.537Z,74.89
2022-09-20T00:14:57.703Z,75.20
2022-09-20T00:15:57.678Z,75.09
2022-09-20T00:16:57.575Z,74.28
2022-09-20T00:17:57.462Z,74.38
2022-09-20T00:18:57.671Z,75.30
2022-09-20T00:19:57.565Z,75.50
2022-09-20T00:20:57.519Z,75.60
2022-09-20T00:21:57.819Z,75.30
2022-09-20T00:22:57.388Z,75.40
2022-09-20T00:23:57.804Z,75.81
2022-09-20T00:24:57.362Z,75.60
2022-09-20T00:25:57.353Z,75.81
2022-09-20T00:26:57.399Z,76.52
2022-09-20T00:27:57.465Z,76.21
2022-09-20T00:28:57.336Z,75.09
2022-09-20T00:29:57.408Z,74.08
2022-09-20T00:30:57.282Z,73.47
2022-09-20T00:31:57.360Z,73.06
2022-09-20T00:32:59.174Z,73.06
2022-09-20T00:33:57.427Z,73.36
2022-09-20T00:34:57.254Z,73.97
2022-09-20T00:35:57.280Z,74.28
2022-09-20T00:36:57.209Z,74.69
2022-09-20T00:37:57.339Z,75.09
2022-09-20T00:38:57.259Z,75.50
2022-09-20T00:39:57.498Z,76.11
2022-09-20T00:40:57.225Z,76.04
2022-09-20T00:41:57.160Z,75.95
2022-09-20T00:42:57.344Z,76.04
2022-09-20T00:43:57.163Z,76.56
2022-09-20T00:44:57.171Z,76.65
2022-09-20T00:45:57.245Z,76.86
2022-09-20T00:46:58.627Z,76.76
2022-09-20T00:47:57.162Z,75.43
2022-09-20T00:48:57.124Z,74.41
2022-09-20T00:49:57.194Z,74.18
2022-09-20T00:50:57.080Z,73.87
2022-09-20T00:51:57.161Z,74.08
2022-09-20T00:52:57.124Z,74.48
2022-09-20T00:53:57.086Z,75.13
2022-09-20T00:54:57.049Z,74.52
2022-09-20T00:55:58.012Z,74.11
2022-09-20T00:56:57.017Z,74.82
2022-09-20T00:57:57.022Z,74.52
2022-09-20T00:58:57.005Z,74.93
2022-09-20T00:59:57.020Z,75.13
2022-09-20T01:00:57.054Z,75.84
2022-09-20T01:01:57.029Z,76.21
2022-09-20T01:02:56.940Z,75.70
2022-09-20T01:03:56.974Z,75.09
2022-09-20T01:04:56.940Z,73.97
2022-09-20T01:05:56.891Z,74.18
2022-09-20T01:06:56.944Z,75.09
2022-09-20T01:07:56.891Z,75.70
2022-09-20T01:08:57.189Z,76.01
2022-09-20T01:09:57.138Z,75.50
2022-09-20T01:10:56.966Z,74.48
2022-09-20T01:11:56.853Z,74.08
2022-09-20T01:12:56.854Z,74.18
2022-09-20T01:13:56.845Z,74.38
2022-09-20T01:14:56.793Z,74.69
2022-09-20T01:15:56.876Z,74.96
2022-09-20T01:16:56.846Z,75.06
2022-09-20T01:17:56.815Z,74.55
2022-09-20T01:18:56.761Z,74.45
2022-09-20T01:19:56.756Z,74.55
2022-09-20T01:20:56.870Z,74.76
2022-09-20T01:21:56.814Z,75.16
2022-09-20T01:22:56.796Z,77.20
2022-09-20T01:23:56.713Z,80.96
2022-09-20T01:24:56.679Z,82.38
2022-09-20T01:25:56.729Z,82.93
2022-09-20T01:26:56.719Z,83.03
2022-09-20T01:27:56.736Z,83.48
2022-09-20T01:28:56.632Z,84.09
2022-09-20T01:29:56.634Z,85.14
2022-09-20T01:30:56.615Z,84.64
2022-09-20T01:31:56.704Z,82.74
2022-09-20T01:32:56.616Z,80.80
2022-09-20T01:33:56.766Z,79.68
2022-09-20T01:34:56.576Z,80.70
2022-09-20T01:35:56.570Z,82.98
2022-09-20T01:36:56.604Z,84.45
2022-09-20T01:37:56.562Z,87.04
2022-09-20T01:38:58.200Z,90.04
2022-09-20T01:39:56.650Z,92.13
2022-09-20T01:40:57.618Z,93.15
2022-09-20T01:41:56.593Z,92.84
2022-09-20T01:42:56.560Z,91.31
2022-09-20T01:43:56.973Z,91.27
2022-09-20T01:44:56.806Z,91.20
2022-09-20T01:45:56.965Z,90.19
2022-09-20T01:46:56.740Z,88.24
2022-09-20T01:47:56.452Z,87.59
2022-09-20T01:48:56.679Z,87.90
2022-09-20T01:49:56.625Z,87.59
2022-09-20T01:50:56.650Z,86.98
2022-09-20T01:51:57.391Z,86.67
2022-09-20T01:52:56.548Z,87.38
2022-09-20T01:53:56.717Z,87.45
2022-09-20T01:54:56.790Z,87.65
2022-09-20T01:55:56.425Z,83.53
2022-09-20T01:56:56.355Z,82.21
2022-09-20T01:57:56.899Z,82.37
2022-09-20T01:59:12.886Z,83.59
2022-09-20T01:59:56.292Z,84.11
2022-09-20T02:00:56.385Z,82.57
2022-09-20T02:01:56.976Z,82.17
2022-09-20T02:02:56.610Z,82.23
2022-09-20T02:03:56.414Z,82.54
2022-09-20T02:04:56.583Z,82.23
2022-09-20T02:05:56.776Z,82.64
2022-09-20T02:06:56.477Z,83.15
2022-09-20T02:07:56.332Z,83.15
2022-09-20T02:08:56.336Z,83.76
2022-09-20T02:09:56.807Z,85.28
2022-09-20T02:10:56.243Z,86.61
2022-09-20T02:11:56.552Z,87.43
2022-09-20T02:12:56.293Z,87.98
2022-09-20T02:13:56.316Z,88.90
2022-09-20T02:14:56.253Z,89.61
2022-09-20T02:15:56.261Z,90.26
2022-09-20T02:16:56.619Z,89.75
2022-09-20T02:17:56.484Z,89.25
2022-09-20T02:18:56.344Z,88.02
2022-09-20T02:19:56.200Z,87.30
2022-09-20T02:20:56.387Z,86.80
2022-09-20T02:21:56.594Z,86.39
2022-09-20T02:22:56.623Z,86.69
2022-09-20T02:23:56.402Z,86.59
2022-09-20T02:24:56.028Z,86.90
2022-09-20T02:25:56.084Z,86.76
2022-09-20T02:26:56.200Z,86.55
2022-09-20T02:27:56.268Z,86.96
2022-09-20T02:28:56.059Z,86.24
2022-09-20T02:29:56.102Z,84.98
2022-09-20T02:30:56.015Z,83.96
2022-09-20T02:31:55.978Z,82.84
2022-09-20T02:32:56.079Z,80.29
2022-09-20T02:33:55.976Z,79.64
2022-09-20T02:34:55.956Z,79.75
2022-09-20T02:35:55.992Z,80.97
2022-09-20T02:36:55.897Z,82.03
2022-09-20T02:37:55.893Z,81.72
2022-09-20T02:38:55.947Z,81.62
2022-09-20T02:39:55.974Z,81.82
2022-09-20T02:40:55.989Z,82.03
2022-09-20T02:41:55.883Z,82.54
2022-09-20T02:42:56.012Z,82.74
2022-09-20T02:43:55.782Z,81.31
2022-09-20T02:44:55.778Z,80.60
2022-09-20T02:45:55.916Z,79.79
2022-09-20T02:46:55.844Z,79.11
2022-09-20T02:47:55.771Z,78.80
2022-09-20T02:48:55.792Z,79.52
2022-09-20T02:49:55.785Z,79.52
2022-09-20T02:50:55.786Z,80.43
2022-09-20T02:51:55.898Z,81.66
2022-09-20T02:52:55.690Z,81.66
2022-09-20T02:53:55.792Z,81.35
2022-09-20T02:54:55.667Z,81.15
2022-09-20T02:55:55.649Z,81.45
2022-09-20T02:56:55.700Z,80.64
2022-09-20T02:57:55.730Z,80.13
2022-09-20T02:58:55.618Z,79.32
2022-09-20T02:59:55.614Z,79.11
2022-09-20T03:00:55.702Z,79.11
2022-09-20T03:01:55.653Z,79.00
2022-09-20T03:02:55.682Z,79.32
2022-09-20T03:03:55.621Z,80.13
2022-09-20T03:04:55.564Z,80.80
2022-09-20T03:05:55.573Z,81.21
2022-09-20T03:06:57.151Z,81.35
2022-09-20T03:07:56.583Z,81.93
2022-09-20T03:08:55.580Z,81.62
2022-09-20T03:09:55.545Z,80.91
2022-09-20T03:10:55.513Z,80.70
2022-09-20T03:11:55.535Z,81.11
2022-09-20T03:12:55.488Z,81.31
2022-09-20T03:13:55.451Z,81.93
2022-09-20T03:14:55.462Z,82.43
2022-09-20T03:15:55.502Z,81.62
2022-09-20T03:16:55.475Z,81.41
2022-09-20T03:17:55.422Z,81.72
2022-09-20T03:18:55.419Z,81.41
2022-09-20T03:19:55.462Z,81.72
2022-09-20T03:20:55.376Z,82.03
2022-09-20T03:21:55.528Z,82.23
2022-09-20T03:22:55.428Z,82.74
2022-09-20T03:23:55.536Z,82.54
2022-09-20T03:24:55.428Z,82.33
2022-09-20T03:25:55.307Z,83.04
2022-09-20T03:26:55.327Z,83.25
2022-09-20T03:27:55.335Z,83.59
2022-09-20T03:28:55.377Z,84.00
2022-09-20T03:29:55.353Z,84.20
2022-09-20T03:30:55.287Z,84.41
2022-09-20T03:31:55.346Z,84.11
2022-09-20T03:32:55.339Z,84.31
2022-09-20T03:33:55.402Z,83.65
2022-09-20T03:34:55.322Z,83.65
2022-09-20T03:35:55.191Z,83.35
2022-09-20T03:36:55.243Z,82.54
2022-09-20T03:37:55.206Z,82.23
2022-09-20T03:38:55.348Z,81.72
2022-09-20T03:39:55.297Z,80.46
2022-09-20T03:40:55.380Z,78.22
2022-09-20T03:41:55.174Z,77.20
2022-09-20T03:42:55.224Z,77.00
2022-09-20T03:43:55.155Z,78.59
2022-09-20T03:44:55.168Z,80.26
2022-09-20T03:45:55.206Z,82.09
2022-09-20T03:46:55.711Z,82.80
2022-09-20T03:47:55.147Z,83.82
2022-09-20T03:48:55.739Z,84.88
2022-09-20T03:49:55.123Z,85.69
2022-09-20T03:50:55.141Z,86.10
2022-09-20T03:51:55.082Z,86.21
2022-09-20T03:52:55.031Z,86.04
2022-09-20T03:53:55.053Z,85.94
2022-09-20T03:54:55.102Z,85.84
2022-09-20T03:55:55.030Z,85.94
2022-09-20T03:56:54.972Z,85.90
2022-09-20T03:57:55.066Z,85.60
2022-09-20T03:58:55.037Z,85.60
2022-09-20T03:59:54.994Z,85.39
2022-09-20T04:00:56.052Z,85.08
2022-09-20T04:01:55.062Z,81.07
2022-09-20T04:02:54.998Z,80.16
2022-09-20T04:03:54.936Z,79.95
2022-09-20T04:04:54.996Z,79.44
2022-09-20T04:05:54.985Z,79.34
2022-09-20T04:06:54.919Z,79.64
2022-09-20T04:07:54.936Z,79.64
2022-09-20T04:08:54.904Z,79.95
2022-09-20T04:09:55.040Z,80.87
2022-09-20T04:10:54.849Z,80.97
2022-09-20T04:11:54.865Z,80.87
2022-09-20T04:12:54.951Z,81.38
2022-09-20T04:13:54.950Z,81.38
2022-09-20T04:14:54.943Z,80.87
2022-09-20T04:15:54.883Z,81.17
2022-09-20T04:16:54.861Z,80.91
2022-09-20T04:17:54.853Z,80.56
2022-09-20T04:18:54.781Z,80.05
2022-09-20T04:19:54.844Z,80.19
2022-09-20T04:20:54.787Z,79.99
2022-09-20T04:21:54.901Z,79.79
2022-09-20T04:22:55.082Z,79.89
2022-09-20T04:23:54.813Z,79.89
2022-09-20T04:24:54.775Z,79.48
2022-09-20T04:25:54.641Z,79.07
2022-09-20T04:26:54.754Z,78.46
2022-09-20T04:27:54.796Z,77.64
2022-09-20T04:28:57.138Z,77.44
2022-09-20T04:29:54.662Z,77.78
2022-09-20T04:30:54.703Z,78.50
2022-09-20T04:31:54.765Z,77.58
2022-09-20T04:32:54.725Z,76.15
2022-09-20T04:33:54.750Z,75.54
2022-09-20T04:34:54.707Z,75.23
2022-09-20T04:35:54.555Z,75.23
2022-09-20T04:36:54.518Z,75.34
2022-09-20T04:37:54.497Z,75.74
2022-09-20T04:38:54.571Z,75.64
2022-09-20T04:39:54.679Z,74.52
2022-09-20T04:40:54.531Z,74.11
2022-09-20T04:41:54.486Z,73.50
2022-09-20T04:42:59.324Z,72.99
2022-09-20T04:52:29.347Z,75.44
2022-09-20T04:53:30.313Z,75.23
2022-09-20T04:54:30.206Z,75.54
2022-09-20T04:55:30.234Z,74.93
2022-09-20T04:56:30.211Z,75.30
2022-09-20T04:57:30.319Z,76.12
2022-09-20T04:58:30.284Z,76.83
2022-09-20T04:59:30.191Z,76.93
2022-09-20T05:00:30.227Z,76.42
2022-09-20T05:01:32.398Z,76.01
2022-09-20T05:02:30.247Z,76.22
2022-09-20T05:03:30.181Z,76.49
2022-09-20T05:04:30.159Z,76.49
2022-09-20T05:05:30.127Z,75.57
2022-09-20T05:06:30.138Z,75.67
2022-09-20T05:07:30.098Z,75.98
2022-09-20T05:08:30.049Z,76.39
2022-09-20T05:09:30.184Z,76.76
2022-09-20T05:10:30.137Z,78.80
2022-09-20T05:11:30.050Z,80.05
2022-09-20T05:12:30.125Z,80.91
2022-09-20T05:13:30.140Z,82.37
2022-09-20T05:15:30.019Z,89.53
2022-09-20T05:16:30.045Z,93.19
2022-09-20T05:17:30.048Z,95.84
2022-09-20T05:18:30.034Z,97.37
2022-09-20T05:19:30.067Z,98.39
2022-09-20T05:20:29.911Z,99.01
2022-09-20T05:21:30.081Z,99.46
2022-09-20T05:22:29.942Z,99.99
2022-09-20T05:23:29.991Z,99.99
2022-09-20T05:24:29.878Z,99.99
2022-09-20T05:25:29.858Z,99.99
2022-09-20T05:26:29.859Z,99.99
2022-09-20T05:27:30.033Z,99.99
2022-09-20T05:28:29.962Z,99.99
2022-09-20T05:29:36.605Z,99.99
2022-09-20T05:31:46.285Z,99.99
2022-09-20T05:32:47.303Z,99.99
2022-09-20T05:33:47.260Z,99.99
2022-09-20T05:34:47.266Z,99.99
2022-09-20T05:35:47.159Z,99.99
2022-09-20T05:36:47.255Z,99.99
2022-09-20T05:37:47.706Z,99.99
2022-09-20T05:38:47.962Z,99.99
2022-09-20T05:39:47.103Z,99.99
2022-09-20T05:40:47.176Z,99.99
2022-09-20T05:41:47.197Z,99.99
2022-09-20T05:42:47.155Z,99.99
2022-09-20T05:43:47.030Z,99.99
2022-09-20T05:44:47.615Z,99.99
2022-09-20T05:45:47.457Z,99.99
2022-09-20T05:46:47.080Z,99.99
2022-09-20T05:47:47.288Z,99.99
2022-09-20T05:48:47.168Z,99.99
2022-09-20T05:49:47.015Z,99.99
2022-09-20T05:50:47.046Z,99.99
2022-09-20T05:51:47.028Z,99.99
2022-09-20T05:52:47.506Z,99.99
2022-09-20T05:53:46.919Z,99.99
2022-09-20T05:54:46.939Z,99.99
2022-09-20T05:55:46.908Z,99.99
2022-09-20T05:56:47.565Z,99.99
2022-09-20T05:57:47.238Z,99.99
2022-09-20T05:58:46.987Z,99.99
2022-09-20T05:59:46.975Z,99.99
2022-09-20T06:00:46.932Z,99.99
2022-09-20T06:01:46.934Z,99.99
2022-09-20T06:02:46.970Z,99.99
2022-09-20T06:03:46.839Z,99.62
2022-09-20T06:04:46.984Z,99.41
2022-09-20T06:05:47.108Z,99.41
2022-09-20T06:06:47.118Z,99.41
2022-09-20T06:07:46.839Z,99.57
2022-09-20T06:08:46.925Z,99.62
2022-09-20T06:09:46.816Z,99.98
2022-09-20T06:10:46.828Z,99.52
2022-09-20T06:11:46.952Z,99.72
2022-09-20T06:12:46.704Z,99.52
2022-09-20T06:13:46.770Z,99.72
2022-09-20T06:14:46.782Z,99.52
2022-09-20T06:15:46.669Z,99.99
2022-09-20T06:16:46.942Z,99.99
2022-09-20T06:17:47.070Z,99.99
2022-09-20T06:18:46.765Z,99.99
2022-09-20T06:19:47.105Z,99.99
2022-09-20T06:20:47.090Z,99.93
2022-09-20T06:21:46.724Z,99.99
2022-09-20T06:22:47.374Z,99.99
2022-09-20T06:23:47.350Z,99.99
2022-09-20T06:24:46.958Z,99.99
2022-09-20T06:25:46.613Z,99.99
2022-09-20T06:26:46.644Z,99.99
2022-09-20T06:27:50.486Z,99.99
2022-09-20T06:28:46.572Z,99.99
2022-09-20T06:29:46.531Z,99.99
2022-09-20T06:30:46.531Z,99.99
2022-09-20T06:31:46.495Z,99.99
2022-09-20T06:32:46.551Z,99.99
2022-09-20T06:33:46.539Z,99.99
2022-09-20T06:34:46.455Z,99.99
2022-09-20T06:35:46.450Z,99.99
2022-09-20T06:36:46.453Z,99.99
2022-09-20T06:37:46.479Z,99.99
2022-09-20T06:38:46.737Z,99.99
2022-09-20T06:39:46.549Z,99.99
2022-09-20T06:40:46.397Z,99.99
2022-09-20T06:41:46.500Z,99.99
2022-09-20T06:42:46.609Z,99.99
2022-09-20T06:43:46.579Z,99.99
2022-09-20T06:44:46.464Z,99.99
2022-09-20T06:45:46.575Z,99.99
2022-09-20T06:48:57.438Z,99.99
2022-09-20T06:49:58.898Z,99.99
2022-09-20T06:50:58.764Z,99.99
2022-09-20T06:51:58.683Z,99.99
2022-09-20T06:52:58.773Z,99.99
2022-09-20T06:53:58.703Z,99.99
2022-09-20T06:54:58.628Z,99.99
2022-09-20T06:55:58.434Z,99.99
2022-09-20T06:56:58.650Z,99.99
2022-09-20T06:57:58.833Z,99.99
2022-09-20T06:58:58.452Z,99.99
2022-09-20T06:59:58.742Z,99.99
2022-09-20T07:00:59.645Z,99.99
2022-09-20T07:01:58.733Z,99.99
2022-09-20T07:02:58.506Z,99.99
2022-09-20T07:03:58.437Z,99.99
2022-09-20T07:04:58.566Z,99.99
2022-09-20T07:05:59.489Z,99.99
2022-09-20T07:06:58.262Z,99.99
2022-09-20T07:07:58.266Z,99.99
2022-09-20T07:08:58.216Z,99.99
2022-09-20T07:09:58.234Z,99.99
2022-09-20T07:10:58.489Z,99.99
2022-09-20T07:11:58.923Z,99.99
2022-09-20T07:12:58.145Z,99.99
2022-09-20T07:13:58.238Z,99.99
2022-09-20T07:14:58.223Z,99.99
2022-09-20T07:15:58.273Z,99.99
2022-09-20T07:16:58.186Z,99.99
2022-09-20T07:17:58.100Z,99.99
2022-09-20T07:18:58.289Z,99.99
2022-09-20T07:19:58.367Z,99.99
2022-09-20T07:20:58.230Z,99.99
2022-09-20T07:21:59.956Z,99.99
2022-09-20T07:22:58.080Z,99.99
2022-09-20T07:23:58.026Z,99.99
2022-09-20T07:24:58.013Z,99.99
2022-09-20T07:25:58.065Z,99.99
2022-09-20T07:26:58.064Z,99.99
2022-09-20T07:27:57.973Z,99.99
2022-09-20T07:29:01.399Z,99.99
2022-09-20T07:29:58.013Z,99.99
2022-09-20T07:30:57.953Z,99.99
2022-09-20T07:31:58.028Z,99.99
2022-09-20T07:32:57.969Z,99.99
2022-09-20T07:33:57.956Z,99.99
2022-09-20T07:34:57.925Z,99.99
2022-09-20T07:35:57.897Z,99.99
2022-09-20T07:36:57.901Z,99.99
2022-09-20T07:37:58.104Z,99.99
2022-09-20T07:38:57.914Z,99.99
2022-09-20T07:39:57.907Z,99.99
2022-09-20T07:40:57.829Z,99.99
2022-09-20T07:41:57.827Z,99.99
2022-09-20T07:42:57.811Z,99.99
2022-09-20T07:43:57.949Z,99.99
2022-09-20T07:44:57.880Z,99.99
2022-09-20T07:45:57.816Z,99.99
2022-09-20T07:46:58.004Z,99.99
2022-09-20T07:47:57.924Z,99.99
2022-09-20T07:48:58.608Z,99.99
2022-09-20T07:49:58.018Z,99.99
2022-09-20T07:50:57.793Z,99.99
2022-09-20T07:51:57.779Z,99.99
2022-09-20T07:52:57.877Z,99.99
2022-09-20T07:53:59.494Z,99.99
2022-09-20T07:54:57.876Z,99.99
2022-09-20T07:55:57.996Z,99.99
2022-09-20T07:56:57.674Z,99.99
2022-09-20T07:57:57.726Z,99.99
2022-09-20T07:58:58.062Z,99.99
2022-09-20T07:59:58.895Z,99.99
2022-09-20T08:00:57.783Z,99.99
2022-09-20T08:01:57.784Z,99.99
2022-09-20T08:02:57.658Z,99.99
2022-09-20T08:03:58.348Z,99.99
2022-09-20T08:04:57.870Z,99.99
2022-09-20T08:05:57.680Z,99.99
2022-09-20T08:06:57.913Z,99.99
2022-09-20T08:07:57.830Z,99.99
2022-09-20T08:08:57.751Z,99.99
2022-09-20T08:09:57.657Z,99.99
2022-09-20T08:10:57.995Z,99.99
2022-09-20T08:11:58.392Z,99.99
2022-09-20T08:14:07.009Z,99.99
2022-09-20T08:14:57.540Z,99.99
2022-09-20T08:15:57.497Z,99.99
2022-09-20T08:16:57.751Z,99.99
2022-09-20T08:17:57.703Z,99.99
2022-09-20T08:18:57.903Z,99.99
2022-09-20T08:19:57.546Z,99.99
2022-09-20T08:20:57.558Z,99.99
2022-09-20T08:21:57.595Z,99.99
2022-09-20T08:23:22.151Z,99.99
2022-09-20T08:23:57.757Z,99.99
2022-09-20T08:24:57.372Z,99.99
2022-09-20T08:25:57.836Z,99.99
2022-09-20T08:26:57.441Z,99.99
2022-09-20T08:27:59.035Z,99.99
2022-09-20T08:28:58.070Z,99.99
2022-09-20T08:29:57.483Z,99.99
2022-09-20T08:30:57.431Z,99.99
2022-09-20T08:31:57.418Z,99.99
2022-09-20T08:32:58.009Z,99.99
2022-09-20T08:33:57.276Z,99.99
2022-09-20T08:34:57.359Z,99.99
2022-09-20T08:35:57.816Z,99.99
2022-09-20T08:36:57.591Z,99.99
2022-09-20T08:37:57.556Z,99.99
2022-09-20T08:40:01.804Z,99.99
2022-09-20T08:40:07.018Z,99.99
2022-09-20T08:41:06.961Z,99.99
2022-09-20T08:42:06.934Z,99.99
2022-09-20T08:43:06.844Z,99.99
2022-09-20T08:44:06.978Z,99.99
2022-09-20T08:45:07.316Z,99.99
2022-09-20T08:46:06.888Z,99.99
2022-09-20T08:47:06.799Z,99.99
2022-09-20T08:48:06.762Z,99.99
2022-09-20T08:49:10.997Z,99.99
2022-09-20T08:50:11.154Z,99.99
2022-09-20T08:51:06.795Z,99.99
2022-09-20T08:52:10.395Z,99.99
2022-09-20T08:53:07.073Z,99.99
2022-09-20T08:54:06.749Z,99.99
2022-09-20T08:55:07.983Z,99.99
2022-09-20T08:56:06.743Z,99.99
2022-09-20T08:57:06.766Z,99.99
2022-09-20T08:58:08.960Z,99.99
2022-09-20T08:59:06.684Z,99.99
2022-09-20T09:00:06.730Z,99.99
2022-09-20T09:01:06.739Z,99.99
2022-09-20T09:02:06.755Z,99.99
2022-09-20T09:03:06.791Z,99.99
2022-09-20T09:04:06.838Z,99.99
2022-09-20T09:05:06.685Z,99.99
2022-09-20T09:06:11.168Z,99.99
2022-09-20T09:07:06.926Z,99.99
2022-09-20T09:08:06.512Z,99.99
2022-09-20T09:09:06.587Z,99.99
2022-09-20T09:10:07.346Z,99.99
2022-09-20T09:11:06.777Z,99.99
2022-09-20T09:12:13.315Z,99.99
2022-09-20T09:13:06.971Z,99.99
2022-09-20T09:14:06.447Z,99.99
2022-09-20T09:15:06.480Z,99.99
2022-09-20T09:16:06.842Z,99.99
2022-09-20T09:17:06.500Z,99.99
2022-09-20T09:18:06.339Z,99.99
2022-09-20T09:19:06.464Z,99.99
2022-09-20T09:20:06.950Z,99.99
2022-09-20T09:21:06.361Z,99.99
2022-09-20T09:22:06.307Z,99.99
2022-09-20T09:23:06.287Z,99.99
2022-09-20T09:24:07.116Z,99.99
2022-09-20T09:25:06.332Z,99.99
2022-09-20T09:26:06.244Z,99.99
2022-09-20T09:27:06.310Z,99.99
2022-09-20T09:28:06.215Z,99.99
2022-09-20T09:29:06.243Z,99.99
2022-09-20T09:30:06.251Z,99.99
2022-09-20T09:31:06.273Z,99.99
2022-09-20T09:32:06.224Z,99.99
2022-09-20T09:33:06.160Z,99.99
2022-09-20T09:34:06.276Z,99.99
2022-09-20T09:35:06.211Z,99.99
2022-09-20T09:36:06.174Z,99.99
2022-09-20T09:37:06.251Z,99.99
2022-09-20T09:38:06.120Z,99.99
2022-09-20T09:39:06.156Z,99.99
2022-09-20T09:40:06.265Z,99.99
2022-09-20T09:41:06.151Z,99.99
2022-09-20T09:42:06.169Z,99.09
2022-09-20T09:43:06.361Z,99.99
2022-09-20T09:44:06.169Z,99.99
2022-09-20T09:45:06.164Z,99.99
2022-09-20T09:46:07.325Z,99.99
2022-09-20T09:47:06.230Z,99.99
2022-09-20T09:48:06.357Z,99.99
2022-09-20T09:49:09.862Z,99.44
2022-09-20T09:50:09.671Z,99.95
2022-09-20T09:51:05.993Z,99.24
2022-09-20T09:52:06.375Z,99.29
2022-09-20T09:53:06.191Z,99.90
2022-09-20T09:54:06.305Z,99.90
2022-09-20T09:55:06.259Z,99.69
2022-09-20T09:56:07.925Z,99.14
2022-09-20T09:57:06.140Z,98.83
2022-09-20T09:58:06.140Z,99.29
2022-09-20T09:59:06.050Z,99.09
2022-09-20T10:00:12.802Z,97.77
2022-09-20T10:01:06.184Z,97.46
2022-09-20T10:02:06.339Z,97.77
2022-09-20T10:03:05.824Z,98.89
2022-09-20T10:04:05.963Z,98.27
2022-09-20T10:05:05.922Z,98.38
2022-09-20T10:06:06.484Z,98.64
2022-09-20T10:07:06.711Z,98.38
2022-09-20T10:08:05.812Z,98.27
2022-09-20T10:09:05.814Z,98.27
2022-09-20T10:10:05.854Z,99.66
2022-09-20T10:11:06.339Z,98.13
2022-09-20T10:12:06.164Z,98.39
2022-09-20T10:13:05.779Z,98.39
2022-09-20T10:14:05.706Z,98.08
2022-09-20T10:15:05.702Z,96.76
2022-09-20T10:16:05.723Z,97.37
2022-09-20T10:17:05.896Z,97.98
2022-09-20T10:18:05.844Z,96.86
2022-09-20T10:19:06.045Z,97.88
2022-09-20T10:20:05.846Z,98.08
2022-09-20T10:21:05.901Z,96.25
2022-09-20T10:22:05.896Z,97.27
2022-09-20T10:24:05.663Z,95.74
2022-09-20T10:25:05.746Z,96.30
2022-09-20T10:26:05.673Z,95.90
2022-09-20T10:27:05.583Z,96.20
2022-09-20T10:28:05.671Z,96.71
2022-09-20T10:29:05.908Z,96.10
2022-09-20T10:30:05.747Z,95.29
2022-09-20T10:31:05.697Z,95.08
2022-09-20T10:32:05.583Z,94.17
2022-09-20T10:33:05.596Z,96.51
2022-09-20T10:34:05.621Z,94.78
2022-09-20T10:35:05.836Z,96.41
2022-09-20T10:36:05.846Z,94.32
2022-09-20T10:37:05.917Z,95.45
2022-09-20T10:38:05.548Z,95.04
2022-09-20T10:39:05.455Z,94.27
2022-09-20T10:40:05.601Z,96.20
2022-09-20T10:41:05.573Z,97.48
2022-09-20T10:42:05.427Z,95.85
2022-09-20T10:43:05.486Z,95.29
2022-09-20T10:44:05.935Z,96.61
2022-09-20T10:45:06.599Z,95.90
2022-09-20T10:46:30.771Z,95.43
2022-09-20T10:47:05.677Z,96.81
2022-09-20T10:48:05.429Z,97.93
2022-09-20T10:49:05.670Z,97.28
2022-09-20T10:50:05.418Z,96.46
2022-09-20T10:51:07.056Z,97.28
2022-09-20T10:52:05.458Z,97.17
2022-09-20T10:53:05.303Z,97.07
2022-09-20T10:54:05.252Z,96.00
2022-09-20T10:55:05.614Z,97.17
2022-09-20T10:56:05.432Z,97.02
2022-09-20T10:57:05.285Z,97.53
2022-09-20T10:58:05.315Z,95.59
2022-09-20T10:59:05.261Z,95.08
2022-09-20T11:00:05.316Z,97.02
2022-09-20T11:01:05.533Z,95.59
2022-09-20T11:02:05.280Z,95.69
2022-09-20T11:03:05.416Z,97.06
2022-09-20T11:04:05.407Z,97.02
2022-09-20T11:05:05.371Z,97.53
2022-09-20T11:06:05.965Z,96.81
2022-09-20T11:07:05.216Z,96.76
2022-09-20T11:08:05.236Z,96.92
2022-09-20T11:09:05.159Z,96.36
2022-09-20T11:10:05.155Z,97.13
2022-09-20T11:11:05.089Z,97.19
2022-09-20T11:12:05.210Z,95.36
2022-09-20T11:13:07.780Z,96.37
2022-09-20T11:14:05.195Z,97.23
2022-09-20T11:15:05.055Z,97.60
2022-09-20T11:16:05.071Z,97.69
2022-09-20T11:17:05.970Z,95.54
2022-09-20T11:18:05.153Z,97.38
2022-09-20T11:19:05.254Z,97.69
2022-09-20T11:20:07.599Z,95.65
2022-09-20T11:21:04.956Z,97.93
2022-09-20T11:22:04.988Z,98.79
2022-09-20T11:23:04.938Z,99.87
2022-09-20T11:24:04.946Z,97.88
2022-09-20T11:25:05.002Z,97.67
2022-09-20T11:26:04.925Z,98.02
2022-09-20T11:27:04.901Z,98.48
2022-09-20T11:28:04.898Z,98.38
2022-09-20T11:29:04.901Z,99.04
2022-09-20T11:30:04.877Z,98.59
2022-09-20T11:31:04.939Z,97.52
2022-09-20T11:32:04.968Z,98.27
2022-09-20T11:33:04.821Z,97.66
2022-09-20T11:34:04.816Z,97.77
2022-09-20T11:35:04.815Z,98.02
2022-09-20T11:36:04.807Z,96.60
2022-09-20T11:37:05.009Z,98.02
2022-09-20T11:38:04.799Z,98.94
2022-09-20T11:39:04.873Z,99.25
2022-09-20T11:40:04.826Z,99.86
2022-09-20T11:41:04.724Z,99.76
2022-09-20T11:42:04.775Z,99.71
2022-09-20T11:43:04.850Z,99.87
2022-09-20T11:44:04.729Z,98.49
2022-09-20T11:45:06.355Z,99.20
2022-09-20T11:46:04.812Z,98.79
2022-09-20T11:47:04.885Z,99.30
2022-09-20T11:48:06.451Z,99.61
2022-09-20T11:49:04.748Z,99.56
2022-09-20T11:50:04.717Z,99.62
2022-09-20T11:51:04.933Z,96.67
2022-09-20T11:52:04.608Z,96.00
2022-09-20T11:53:04.662Z,98.30
2022-09-20T11:54:04.737Z,97.53
2022-09-20T11:55:04.657Z,97.37
2022-09-20T11:56:04.574Z,96.25
2022-09-20T11:57:04.563Z,96.15
2022-09-20T11:58:04.565Z,97.03
2022-09-20T11:59:04.633Z,98.91
2022-09-20T12:00:04.593Z,96.98
2022-09-20T12:01:04.677Z,97.75
2022-09-20T12:02:04.721Z,96.58
2022-09-20T12:03:04.691Z,94.74
2022-09-20T12:04:28.272Z,95.51
2022-09-20T12:05:04.554Z,95.15
2022-09-20T12:06:04.628Z,92.91
2022-09-20T12:07:08.924Z,93.32
2022-09-20T12:08:04.484Z,94.24
2022-09-20T12:09:04.500Z,93.93
2022-09-20T12:10:04.497Z,93.18
2022-09-20T12:11:04.581Z,93.48
2022-09-20T12:12:04.424Z,94.09
2022-09-20T12:13:04.867Z,96.23
2022-09-20T12:14:04.410Z,93.24
2022-09-20T12:15:05.030Z,93.07
2022-09-20T12:16:04.416Z,93.18
2022-09-20T12:17:07.104Z,93.89
2022-09-20T12:18:08.907Z,95.10
2022-09-20T12:19:04.480Z,94.86
2022-09-20T12:20:04.295Z,92.36
2022-09-20T12:21:04.364Z,92.16
2022-09-20T12:22:04.359Z,93.38
2022-09-20T12:23:04.410Z,93.12
2022-09-20T12:24:10.340Z,92.41
2022-09-20T12:25:05.015Z,92.71
2022-09-20T12:26:04.319Z,92.97
2022-09-20T12:27:04.287Z,92.06
2022-09-20T12:28:04.228Z,91.55
2022-09-20T14:21:47.928Z,52.94
2022-09-20T14:22:49.771Z,52.57
2022-09-20T14:25:38.717Z,51.29
2022-09-20T16:12:05.378Z,55.73
2022-09-20T16:28:11.071Z,62.34
2022-09-20T16:29:19.412Z,62.74
2022-09-20T16:30:12.082Z,62.24
2022-09-20T16:31:14.019Z,62.98
2022-09-20T16:32:11.994Z,63.92
2022-09-20T16:33:12.098Z,64.19
2022-09-20T16:34:11.947Z,63.48
2022-09-20T16:35:11.909Z,62.87
2022-09-20T16:41:29.430Z,64.29
2022-09-20T16:42:31.109Z,64.12
